createdAt,value
2022-08-29T00:03:50.875Z,95909.00
2022-08-29T00:09:18.891Z,95905.00
2022-08-29T00:14:58.757Z,95912.00
2022-08-29T00:20:34.593Z,95909.00
2022-08-29T00:26:03.058Z,95909.00
2022-08-29T00:31:31.230Z,95910.00
2022-08-29T00:36:59.124Z,95916.00
2022-08-29T00:42:27.585Z,95916.00
2022-08-29T00:48:07.034Z,95920.00
2022-08-29T00:53:41.634Z,95921.00
2022-08-29T00:59:19.463Z,95905.00
2022-08-29T01:04:48.113Z,95906.00
2022-08-29T01:10:35.935Z,95903.00
2022-08-29T01:16:06.153Z,95913.00
2022-08-29T01:22:14.474Z,95909.00
2022-08-29T01:27:47.295Z,95906.00
2022-08-29T01:33:15.247Z,95900.00
2022-08-29T01:38:43.388Z,95901.00
2022-08-29T01:44:17.805Z,95898.00
2022-08-29T01:49:48.831Z,95901.00
2022-08-29T01:55:16.662Z,95896.00
2022-08-29T02:00:44.629Z,95895.00
2022-08-29T02:06:13.773Z,95897.00
2022-08-29T02:11:41.818Z,95893.00
2022-08-29T02:17:10.181Z,95891.00
2022-08-29T02:22:40.366Z,95890.00
2022-08-29T02:28:13.625Z,95895.00
2022-08-29T02:33:41.682Z,95888.00
2022-08-29T02:39:09.625Z,95880.00
2022-08-29T02:44:38.676Z,95887.00
2022-08-29T02:50:09.946Z,95885.00
2022-08-29T02:55:38.802Z,95892.00
2022-08-29T03:01:06.999Z,95896.00
2022-08-29T03:06:34.998Z,95887.00
2022-08-29T03:12:03.151Z,95898.00
2022-08-29T03:17:31.198Z,95887.00
2022-08-29T03:22:59.084Z,95894.00
2022-08-29T03:28:26.999Z,95898.00
2022-08-29T03:33:54.960Z,95897.00
2022-08-29T03:39:22.918Z,95898.00
2022-08-29T03:44:50.873Z,95896.00
2022-08-29T03:50:20.221Z,95901.00
2022-08-29T03:55:48.111Z,95895.00
2022-08-29T04:01:17.749Z,95908.00
2022-08-29T04:06:45.846Z,95909.00
2022-08-29T04:12:13.873Z,95917.00
2022-08-29T04:17:52.923Z,95916.00
2022-08-29T04:23:21.646Z,95916.00
2022-08-29T04:28:50.103Z,95909.00
2022-08-29T04:34:20.899Z,95917.00
2022-08-29T04:39:48.890Z,95919.00
2022-08-29T04:45:24.234Z,95924.00
2022-08-29T04:51:00.714Z,95928.00
2022-08-29T04:56:28.806Z,95937.00
2022-08-29T05:01:58.177Z,95942.00
2022-08-29T05:07:27.729Z,95949.00
2022-08-29T05:12:55.535Z,95949.00
2022-08-29T05:18:23.935Z,95940.00
2022-08-29T05:23:51.922Z,95945.00
2022-08-29T05:29:20.439Z,95948.00
2022-08-29T05:34:49.712Z,95958.00
2022-08-29T05:40:17.879Z,95946.00
2022-08-29T05:45:45.843Z,95947.00
2022-08-29T05:51:21.910Z,95945.00
2022-08-29T05:56:50.463Z,95952.00
2022-08-29T06:02:21.629Z,95964.00
2022-08-29T06:07:49.509Z,95961.00
2022-08-29T06:13:17.421Z,95971.00
2022-08-29T06:18:46.468Z,95965.00
2022-08-29T06:24:14.899Z,95959.00
2022-08-29T06:29:43.524Z,95960.00
2022-08-29T06:35:11.810Z,95962.00
2022-08-29T06:40:39.765Z,95967.00
2022-08-29T06:46:08.812Z,95971.00
2022-08-29T06:51:39.005Z,95975.00
2022-08-29T06:57:06.844Z,95977.00
2022-08-29T07:02:34.803Z,95987.00
2022-08-29T07:08:03.435Z,95991.00
2022-08-29T07:13:32.047Z,95998.00
2022-08-29T07:19:02.930Z,95996.00
2022-08-29T07:24:30.760Z,95994.00
2022-08-29T07:30:00.611Z,95995.00
2022-08-29T07:35:30.694Z,95996.00
2022-08-29T07:41:11.134Z,95995.00
2022-08-29T07:46:39.141Z,96009.00
2022-08-29T07:52:07.440Z,96011.00
2022-08-29T07:57:39.588Z,96013.00
2022-08-29T08:03:08.829Z,96022.00
2022-08-29T08:08:36.754Z,96020.00
2022-08-29T08:14:05.004Z,96026.00
2022-08-29T08:19:33.350Z,96035.00
2022-08-29T08:25:02.197Z,96031.00
2022-08-29T08:30:35.421Z,96033.00
2022-08-29T08:36:30.970Z,96031.00
2022-08-29T08:42:46.392Z,96033.00
2022-08-29T08:48:24.978Z,96031.00
2022-08-29T08:53:57.168Z,96026.00
2022-08-29T08:59:41.182Z,96031.00
2022-08-29T09:05:39.840Z,96031.00
2022-08-29T09:11:11.391Z,96033.00
2022-08-29T09:16:46.945Z,96040.00
2022-08-29T09:22:32.771Z,96034.00
2022-08-29T09:28:01.868Z,96032.00
2022-08-29T09:33:42.796Z,96029.00
2022-08-29T09:39:27.665Z,96037.00
2022-08-29T09:45:15.574Z,96037.00
2022-08-29T09:50:44.559Z,96031.00
2022-08-29T09:56:25.225Z,96035.00
2022-08-29T10:02:28.579Z,96026.00
2022-08-29T10:07:58.125Z,96029.00
2022-08-29T10:13:43.308Z,96030.00
2022-08-29T10:19:21.450Z,96031.00
2022-08-29T10:25:14.486Z,96013.00
2022-08-29T10:31:05.222Z,96016.00
2022-08-29T10:36:37.946Z,96018.00
2022-08-29T10:42:13.291Z,96024.00
2022-08-29T10:48:11.794Z,96033.00
2022-08-29T10:53:46.164Z,96021.00
2022-08-29T10:59:35.803Z,96020.00
2022-08-29T11:05:18.965Z,96010.00
2022-08-29T11:10:50.752Z,96020.00
2022-08-29T11:16:42.521Z,96021.00
2022-08-29T11:22:21.998Z,96017.00
2022-08-29T11:28:20.536Z,96002.00
2022-08-29T11:34:32.096Z,96010.00
2022-08-29T11:46:37.429Z,96009.00
2022-08-29T11:52:11.449Z,96002.00
2022-08-29T11:57:48.727Z,95999.00
2022-08-29T12:03:35.213Z,95995.00
2022-08-29T12:09:54.076Z,95994.00
2022-08-29T12:15:28.016Z,95994.00
2022-08-29T12:20:56.895Z,96000.00
2022-08-29T12:26:46.962Z,96005.00
2022-08-29T12:32:39.900Z,95999.00
2022-08-29T12:38:49.987Z,95992.00
2022-08-29T12:44:27.202Z,95987.00
2022-08-29T12:50:18.886Z,95990.00
2022-08-29T12:56:00.376Z,95996.00
2022-08-29T13:01:38.090Z,95988.00
2022-08-29T13:07:08.913Z,95982.00
2022-08-29T13:12:37.356Z,95988.00
2022-08-29T13:18:06.231Z,95977.00
2022-08-29T13:23:47.250Z,95979.00
2022-08-29T13:35:21.547Z,95967.00
2022-08-29T13:40:57.273Z,95978.00
2022-08-29T13:46:30.691Z,95973.00
2022-08-29T13:51:59.344Z,95966.00
2022-08-29T13:57:29.424Z,95946.00
2022-08-29T14:02:57.529Z,95941.00
2022-08-29T14:08:25.380Z,95902.00
2022-08-29T14:13:53.336Z,95895.00
2022-08-29T14:19:21.516Z,95900.00
2022-08-29T14:24:52.920Z,95892.00
2022-08-29T14:30:23.461Z,95915.00
2022-08-29T14:35:51.865Z,95884.00
2022-08-29T14:41:19.771Z,95884.00
2022-08-29T14:46:47.869Z,95866.00
2022-08-29T14:52:15.934Z,95867.00
2022-08-29T14:57:44.000Z,95908.00
2022-08-29T15:03:11.950Z,95918.00
2022-08-29T15:08:40.276Z,95911.00
2022-08-29T15:14:08.112Z,95916.00
2022-08-29T15:20:24.268Z,95915.00
2022-08-29T15:25:25.121Z,95916.00
2022-08-29T15:30:52.991Z,95908.00
2022-08-29T15:36:24.083Z,95904.00
2022-08-29T15:41:51.899Z,95903.00
2022-08-29T15:47:19.758Z,95900.00
2022-08-29T15:52:54.804Z,95892.00
2022-08-29T15:58:23.969Z,95890.00
2022-08-29T16:03:54.729Z,95889.00
2022-08-29T16:09:22.908Z,95885.00
2022-08-29T16:14:59.708Z,95884.00
2022-08-29T16:20:30.561Z,95885.00
2022-08-29T16:25:58.569Z,95887.00
2022-08-29T16:31:26.573Z,95893.00
2022-08-29T16:36:59.676Z,95893.00
2022-08-29T16:42:30.621Z,95895.00
2022-08-29T16:47:58.836Z,95892.00
2022-08-29T16:53:26.885Z,95890.00
2022-08-29T16:59:01.618Z,95897.00
2022-08-29T17:04:30.046Z,95899.00
2022-08-29T17:09:58.222Z,95901.00
2022-08-29T17:15:27.044Z,95899.00
2022-08-29T17:20:56.250Z,95903.00
2022-08-29T17:26:27.214Z,95903.00
2022-08-29T17:31:55.718Z,95904.00
2022-08-29T17:37:27.007Z,95910.00
2022-08-29T17:43:00.827Z,95896.00
2022-08-29T17:48:34.311Z,95901.00
2022-08-29T17:54:08.453Z,95899.00
2022-08-29T17:59:37.457Z,95897.00
2022-08-29T18:05:06.710Z,95893.00
2022-08-29T18:10:38.971Z,95896.00
2022-08-29T18:16:07.448Z,95908.00
2022-08-29T18:21:36.454Z,95917.00
2022-08-29T18:27:04.954Z,95921.00
2022-08-29T18:32:37.482Z,95933.00
2022-08-29T18:38:05.591Z,95945.00
2022-08-29T18:43:35.342Z,95943.00
2022-08-29T18:49:04.314Z,95948.00
2022-08-29T18:54:32.435Z,95952.00
2022-08-29T19:00:00.460Z,95945.00
2022-08-29T19:05:31.298Z,95948.00
2022-08-29T19:11:00.412Z,95945.00
2022-08-29T19:16:28.560Z,95950.00
2022-08-29T19:21:56.828Z,95955.00
2022-08-29T19:27:42.135Z,95963.00
2022-08-29T19:33:12.359Z,95963.00
2022-08-29T19:38:44.582Z,95976.00
2022-08-29T19:44:12.606Z,95977.00
2022-08-29T19:49:45.276Z,95984.00
2022-08-29T19:55:17.945Z,95987.00
2022-08-29T20:00:46.151Z,95992.00
2022-08-29T20:06:14.172Z,95979.00
2022-08-29T20:11:43.643Z,95977.00
2022-08-29T20:22:58.912Z,95974.00
2022-08-29T20:28:33.884Z,95979.00
2022-08-29T20:34:02.141Z,95974.00
2022-08-29T20:39:31.369Z,95971.00
2022-08-29T20:45:00.151Z,95974.00
2022-08-29T20:55:59.097Z,95964.00
2022-08-29T21:01:27.565Z,95973.00
2022-08-29T21:07:02.477Z,95975.00
2022-08-29T21:12:30.416Z,95977.00
2022-08-29T21:17:59.701Z,95983.00
2022-08-29T21:23:28.250Z,95991.00
2022-08-29T21:28:56.217Z,95990.00
2022-08-29T21:34:24.797Z,95989.00
2022-08-29T21:39:53.018Z,95974.00
2022-08-29T21:45:22.647Z,95978.00
2022-08-29T21:51:06.122Z,95986.00
2022-08-29T21:56:34.741Z,95988.00
2022-08-29T22:02:03.849Z,95985.00
2022-08-29T22:07:33.258Z,95986.00
2022-08-29T22:13:04.506Z,95982.00
2022-08-29T22:18:34.824Z,95978.00
2022-08-29T22:24:03.886Z,95980.00
2022-08-29T22:29:34.740Z,95989.00
2022-08-29T22:35:07.538Z,95986.00
2022-08-29T22:40:35.496Z,95991.00
2022-08-29T22:46:12.425Z,95989.00
2022-08-29T22:51:40.417Z,95985.00
2022-08-29T22:57:13.841Z,95990.00
2022-08-29T23:02:42.101Z,95996.00
2022-08-29T23:08:09.960Z,95993.00
2022-08-29T23:13:37.771Z,95992.00
2022-08-29T23:19:06.265Z,95985.00
2022-08-29T23:24:34.763Z,95989.00
2022-08-29T23:30:06.324Z,95988.00
2022-08-29T23:35:34.219Z,95988.00
2022-08-29T23:41:05.618Z,95978.00
2022-08-29T23:46:38.048Z,95977.00
2022-08-29T23:52:06.392Z,95965.00
2022-08-29T23:57:35.894Z,95966.00
